sensor_id;sensor_type;location;lat;lon;timestamp;temperature;humidity
11095;DHT22;5601;44.490;11.400;2022-11-23T00:00:32;7.70;99.90
11095;DHT22;5601;44.490;11.400;2022-11-23T00:02:59;7.70;99.90
11095;DHT22;5601;44.490;11.400;2022-11-23T00:05:27;7.70;99.90
11095;DHT22;5601;44.490;11.400;2022-11-23T00:07:55;7.70;99.90
11095;DHT22;5601;44.490;11.400;2022-11-23T00:10:22;7.70;99.90
11095;DHT22;5601;44.490;11.400;2022-11-23T00:12:49;7.70;99.90
11095;DHT22;5601;44.490;11.400;2022-11-23T00:15:16;7.70;99.90
11095;DHT22;5601;44.490;11.400;2022-11-23T00:17:44;7.70;99.90
11095;DHT22;5601;44.490;11.400;2022-11-23T00:20:12;7.70;99.90
11095;DHT22;5601;44.490;11.400;2022-11-23T00:22:39;7.70;99.90
11095;DHT22;5601;44.490;11.400;2022-11-23T00:25:06;7.70;99.90
11095;DHT22;5601;44.490;11.400;2022-11-23T00:27:33;7.70;99.90
11095;DHT22;5601;44.490;11.400;2022-11-23T00:30:00;7.70;99.90
11095;DHT22;5601;44.490;11.400;2022-11-23T00:32:27;7.70;99.90
11095;DHT22;5601;44.490;11.400;2022-11-23T00:34:56;7.70;99.90
11095;DHT22;5601;44.490;11.400;2022-11-23T00:37:23;7.70;99.90
11095;DHT22;5601;44.490;11.400;2022-11-23T00:39:50;7.70;99.90
11095;DHT22;5601;44.490;11.400;2022-11-23T00:42:17;7.70;99.90
11095;DHT22;5601;44.490;11.400;2022-11-23T00:44:44;7.70;99.90
11095;DHT22;5601;44.490;11.400;2022-11-23T00:47:10;7.80;99.90
11095;DHT22;5601;44.490;11.400;2022-11-23T00:49:37;7.70;99.90
11095;DHT22;5601;44.490;11.400;2022-11-23T00:52:06;7.70;99.90
11095;DHT22;5601;44.490;11.400;2022-11-23T00:54:33;7.70;99.90
11095;DHT22;5601;44.490;11.400;2022-11-23T00:57:00;7.70;99.90
11095;DHT22;5601;44.490;11.400;2022-11-23T00:59:27;7.70;99.90
11095;DHT22;5601;44.490;11.400;2022-11-23T01:01:55;7.70;99.90
11095;DHT22;5601;44.490;11.400;2022-11-23T01:04:21;7.80;99.90
11095;DHT22;5601;44.490;11.400;2022-11-23T01:06:49;7.70;99.90
11095;DHT22;5601;44.490;11.400;2022-11-23T01:09:17;7.80;99.90
11095;DHT22;5601;44.490;11.400;2022-11-23T01:11:49;7.80;99.90
11095;DHT22;5601;44.490;11.400;2022-11-23T01:14:16;7.80;99.90
11095;DHT22;5601;44.490;11.400;2022-11-23T01:16:43;7.80;99.90
11095;DHT22;5601;44.490;11.400;2022-11-23T01:19:10;7.90;99.90
11095;DHT22;5601;44.490;11.400;2022-11-23T01:21:38;7.80;99.90
11095;DHT22;5601;44.490;11.400;2022-11-23T01:24:05;7.90;99.90
11095;DHT22;5601;44.490;11.400;2022-11-23T01:26:34;7.90;99.90
11095;DHT22;5601;44.490;11.400;2022-11-23T01:29:01;7.90;99.90
11095;DHT22;5601;44.490;11.400;2022-11-23T01:31:28;7.90;99.90
11095;DHT22;5601;44.490;11.400;2022-11-23T01:33:56;7.90;99.90
11095;DHT22;5601;44.490;11.400;2022-11-23T01:36:25;7.90;99.90
11095;DHT22;5601;44.490;11.400;2022-11-23T01:38:52;7.90;99.90
11095;DHT22;5601;44.490;11.400;2022-11-23T01:41:21;8.00;99.90
11095;DHT22;5601;44.490;11.400;2022-11-23T01:43:49;8.00;99.90
11095;DHT22;5601;44.490;11.400;2022-11-23T01:46:17;8.00;99.90
11095;DHT22;5601;44.490;11.400;2022-11-23T01:48:45;8.00;99.90
11095;DHT22;5601;44.490;11.400;2022-11-23T01:51:13;7.90;99.90
11095;DHT22;5601;44.490;11.400;2022-11-23T01:53:41;7.90;99.90
11095;DHT22;5601;44.490;11.400;2022-11-23T01:56:09;8.00;99.90
11095;DHT22;5601;44.490;11.400;2022-11-23T01:58:39;8.00;99.90
11095;DHT22;5601;44.490;11.400;2022-11-23T02:01:09;8.00;99.90
11095;DHT22;5601;44.490;11.400;2022-11-23T02:03:37;8.00;99.90
11095;DHT22;5601;44.490;11.400;2022-11-23T02:06:06;7.90;99.90
11095;DHT22;5601;44.490;11.400;2022-11-23T02:08:35;7.90;99.90
11095;DHT22;5601;44.490;11.400;2022-11-23T02:11:03;7.90;99.90
11095;DHT22;5601;44.490;11.400;2022-11-23T02:13:30;7.80;99.90
11095;DHT22;5601;44.490;11.400;2022-11-23T02:15:57;7.80;99.90
11095;DHT22;5601;44.490;11.400;2022-11-23T02:18:26;7.70;99.90
11095;DHT22;5601;44.490;11.400;2022-11-23T02:20:54;7.70;99.90
11095;DHT22;5601;44.490;11.400;2022-11-23T02:23:25;7.70;99.90
11095;DHT22;5601;44.490;11.400;2022-11-23T02:26:00;7.80;99.90
11095;DHT22;5601;44.490;11.400;2022-11-23T02:28:29;7.80;99.90
11095;DHT22;5601;44.490;11.400;2022-11-23T02:30:58;7.80;99.90
11095;DHT22;5601;44.490;11.400;2022-11-23T02:33:25;7.80;99.90
11095;DHT22;5601;44.490;11.400;2022-11-23T02:35:53;7.80;99.90
11095;DHT22;5601;44.490;11.400;2022-11-23T02:38:20;7.80;99.90
11095;DHT22;5601;44.490;11.400;2022-11-23T02:40:48;7.80;99.90
11095;DHT22;5601;44.490;11.400;2022-11-23T02:43:17;7.90;99.90
11095;DHT22;5601;44.490;11.400;2022-11-23T02:45:45;7.90;99.90
11095;DHT22;5601;44.490;11.400;2022-11-23T02:48:13;7.90;99.90
11095;DHT22;5601;44.490;11.400;2022-11-23T02:50:40;7.90;99.90
11095;DHT22;5601;44.490;11.400;2022-11-23T02:53:07;7.90;99.90
11095;DHT22;5601;44.490;11.400;2022-11-23T02:55:34;7.90;99.90
11095;DHT22;5601;44.490;11.400;2022-11-23T02:58:01;7.90;99.90
11095;DHT22;5601;44.490;11.400;2022-11-23T03:00:30;7.90;99.90
11095;DHT22;5601;44.490;11.400;2022-11-23T03:02:57;7.90;99.90
11095;DHT22;5601;44.490;11.400;2022-11-23T03:05:24;7.90;99.90
11095;DHT22;5601;44.490;11.400;2022-11-23T03:07:51;8.00;99.90
11095;DHT22;5601;44.490;11.400;2022-11-23T03:10:18;8.00;99.90
11095;DHT22;5601;44.490;11.400;2022-11-23T03:12:46;8.00;99.90
11095;DHT22;5601;44.490;11.400;2022-11-23T03:15:13;8.00;99.90
11095;DHT22;5601;44.490;11.400;2022-11-23T03:17:42;8.00;99.90
11095;DHT22;5601;44.490;11.400;2022-11-23T03:20:09;8.00;99.90
11095;DHT22;5601;44.490;11.400;2022-11-23T03:22:36;8.00;99.90
11095;DHT22;5601;44.490;11.400;2022-11-23T03:25:04;8.00;99.90
11095;DHT22;5601;44.490;11.400;2022-11-23T03:27:31;8.00;99.90
11095;DHT22;5601;44.490;11.400;2022-11-23T03:29:59;7.90;99.90
11095;DHT22;5601;44.490;11.400;2022-11-23T03:32:25;7.90;99.90
11095;DHT22;5601;44.490;11.400;2022-11-23T03:34:54;7.90;99.90
11095;DHT22;5601;44.490;11.400;2022-11-23T03:37:21;7.90;99.90
11095;DHT22;5601;44.490;11.400;2022-11-23T03:39:48;7.90;99.90
11095;DHT22;5601;44.490;11.400;2022-11-23T03:42:15;7.80;99.90
11095;DHT22;5601;44.490;11.400;2022-11-23T03:44:42;7.80;99.90
11095;DHT22;5601;44.490;11.400;2022-11-23T03:47:09;7.80;99.90
11095;DHT22;5601;44.490;11.400;2022-11-23T03:49:36;7.80;99.90
11095;DHT22;5601;44.490;11.400;2022-11-23T03:52:05;7.80;99.90
11095;DHT22;5601;44.490;11.400;2022-11-23T03:54:32;7.80;99.90
11095;DHT22;5601;44.490;11.400;2022-11-23T03:56:59;7.80;99.90
11095;DHT22;5601;44.490;11.400;2022-11-23T03:59:26;7.50;99.90
11095;DHT22;5601;44.490;11.400;2022-11-23T04:01:53;7.80;99.90
11095;DHT22;5601;44.490;11.400;2022-11-23T04:04:20;7.80;99.90
11095;DHT22;5601;44.490;11.400;2022-11-23T04:06:48;7.80;99.90
11095;DHT22;5601;44.490;11.400;2022-11-23T04:09:16;7.80;99.90
11095;DHT22;5601;44.490;11.400;2022-11-23T04:11:43;7.80;99.90
11095;DHT22;5601;44.490;11.400;2022-11-23T04:14:10;7.70;99.90
11095;DHT22;5601;44.490;11.400;2022-11-23T04:16:37;7.70;99.90
11095;DHT22;5601;44.490;11.400;2022-11-23T04:19:04;7.70;99.90
11095;DHT22;5601;44.490;11.400;2022-11-23T04:21:31;7.60;99.90
11095;DHT22;5601;44.490;11.400;2022-11-23T04:23:58;7.60;99.90
11095;DHT22;5601;44.490;11.400;2022-11-23T04:26:27;7.60;99.90
11095;DHT22;5601;44.490;11.400;2022-11-23T04:28:54;7.70;99.90
11095;DHT22;5601;44.490;11.400;2022-11-23T04:31:21;7.70;99.90
11095;DHT22;5601;44.490;11.400;2022-11-23T04:33:48;7.60;99.90
11095;DHT22;5601;44.490;11.400;2022-11-23T04:36:15;7.50;99.90
11095;DHT22;5601;44.490;11.400;2022-11-23T04:38:42;7.50;99.90
11095;DHT22;5601;44.490;11.400;2022-11-23T04:41:09;7.50;99.90
11095;DHT22;5601;44.490;11.400;2022-11-23T04:43:38;7.50;99.90
11095;DHT22;5601;44.490;11.400;2022-11-23T04:46:05;7.40;99.90
11095;DHT22;5601;44.490;11.400;2022-11-23T04:48:33;7.40;99.90
11095;DHT22;5601;44.490;11.400;2022-11-23T04:51:00;7.30;99.90
11095;DHT22;5601;44.490;11.400;2022-11-23T04:53:27;7.30;99.90
11095;DHT22;5601;44.490;11.400;2022-11-23T04:55:54;7.30;99.90
11095;DHT22;5601;44.490;11.400;2022-11-23T04:58:22;7.30;99.90
11095;DHT22;5601;44.490;11.400;2022-11-23T05:00:50;7.30;99.90
11095;DHT22;5601;44.490;11.400;2022-11-23T05:03:16;7.20;99.90
11095;DHT22;5601;44.490;11.400;2022-11-23T05:05:44;7.20;99.90
11095;DHT22;5601;44.490;11.400;2022-11-23T05:08:11;7.20;99.90
11095;DHT22;5601;44.490;11.400;2022-11-23T05:10:38;7.20;99.90
11095;DHT22;5601;44.490;11.400;2022-11-23T05:13:05;7.20;99.90
11095;DHT22;5601;44.490;11.400;2022-11-23T05:15:32;7.20;99.90
11095;DHT22;5601;44.490;11.400;2022-11-23T05:18:02;7.20;99.90
11095;DHT22;5601;44.490;11.400;2022-11-23T05:20:30;7.20;99.90
11095;DHT22;5601;44.490;11.400;2022-11-23T05:22:58;7.20;99.90
11095;DHT22;5601;44.490;11.400;2022-11-23T05:25:25;7.10;99.90
11095;DHT22;5601;44.490;11.400;2022-11-23T05:27:52;7.10;99.90
11095;DHT22;5601;44.490;11.400;2022-11-23T05:30:20;7.00;99.90
11095;DHT22;5601;44.490;11.400;2022-11-23T05:32:47;7.00;99.90
11095;DHT22;5601;44.490;11.400;2022-11-23T05:35:15;7.00;99.90
11095;DHT22;5601;44.490;11.400;2022-11-23T05:37:42;7.00;99.90
11095;DHT22;5601;44.490;11.400;2022-11-23T05:40:09;6.90;99.90
11095;DHT22;5601;44.490;11.400;2022-11-23T05:42:36;6.90;99.90
11095;DHT22;5601;44.490;11.400;2022-11-23T05:45:04;6.90;99.90
11095;DHT22;5601;44.490;11.400;2022-11-23T05:47:31;6.90;99.90
11095;DHT22;5601;44.490;11.400;2022-11-23T05:49:59;6.80;99.90
11095;DHT22;5601;44.490;11.400;2022-11-23T05:52:27;6.90;99.90
11095;DHT22;5601;44.490;11.400;2022-11-23T05:54:54;6.80;99.90
11095;DHT22;5601;44.490;11.400;2022-11-23T08:59:36;10.30;99.90
11095;DHT22;5601;44.490;11.400;2022-11-23T09:02:04;10.40;99.90
11095;DHT22;5601;44.490;11.400;2022-11-23T09:04:31;10.50;99.90
11095;DHT22;5601;44.490;11.400;2022-11-23T09:06:58;10.60;99.90
11095;DHT22;5601;44.490;11.400;2022-11-23T09:09:25;10.60;99.90
11095;DHT22;5601;44.490;11.400;2022-11-23T09:11:51;10.70;99.90
11095;DHT22;5601;44.490;11.400;2022-11-23T09:14:18;10.70;99.90
11095;DHT22;5601;44.490;11.400;2022-11-23T09:16:47;10.80;99.90
11095;DHT22;5601;44.490;11.400;2022-11-23T09:19:15;10.90;99.90
11095;DHT22;5601;44.490;11.400;2022-11-23T09:21:42;11.00;99.90
11095;DHT22;5601;44.490;11.400;2022-11-23T09:24:09;11.10;99.90
11095;DHT22;5601;44.490;11.400;2022-11-23T09:26:36;11.20;99.90
11095;DHT22;5601;44.490;11.400;2022-11-23T09:29:04;11.30;99.90
11095;DHT22;5601;44.490;11.400;2022-11-23T09:31:32;11.40;99.90
11095;DHT22;5601;44.490;11.400;2022-11-23T09:34:00;11.50;99.90
11095;DHT22;5601;44.490;11.400;2022-11-23T09:36:27;11.60;99.90
11095;DHT22;5601;44.490;11.400;2022-11-23T09:38:54;11.60;99.90
11095;DHT22;5601;44.490;11.400;2022-11-23T09:41:25;11.80;99.90
11095;DHT22;5601;44.490;11.400;2022-11-23T09:43:56;11.80;99.90
11095;DHT22;5601;44.490;11.400;2022-11-23T09:46:28;11.90;99.90
11095;DHT22;5601;44.490;11.400;2022-11-23T09:49:09;12.10;99.90
11095;DHT22;5601;44.490;11.400;2022-11-23T09:51:38;12.20;99.90
11095;DHT22;5601;44.490;11.400;2022-11-23T09:54:09;12.30;99.90
11095;DHT22;5601;44.490;11.400;2022-11-23T09:56:37;12.30;99.90
11095;DHT22;5601;44.490;11.400;2022-11-23T09:59:09;12.30;99.90
11095;DHT22;5601;44.490;11.400;2022-11-23T10:01:38;12.40;99.90
11095;DHT22;5601;44.490;11.400;2022-11-23T10:04:05;12.40;99.90
11095;DHT22;5601;44.490;11.400;2022-11-23T10:06:36;12.40;99.90
11095;DHT22;5601;44.490;11.400;2022-11-23T10:09:11;12.50;99.90
11095;DHT22;5601;44.490;11.400;2022-11-23T10:11:47;12.60;99.90
11095;DHT22;5601;44.490;11.400;2022-11-23T10:14:22;12.60;99.90
11095;DHT22;5601;44.490;11.400;2022-11-23T10:16:55;12.70;99.90
11095;DHT22;5601;44.490;11.400;2022-11-23T10:19:25;12.80;99.90
11095;DHT22;5601;44.490;11.400;2022-11-23T10:22:00;13.00;99.90
11095;DHT22;5601;44.490;11.400;2022-11-23T10:24:32;13.00;99.90
11095;DHT22;5601;44.490;11.400;2022-11-23T10:26:59;12.90;99.90
11095;DHT22;5601;44.490;11.400;2022-11-23T10:29:29;12.90;99.90
11095;DHT22;5601;44.490;11.400;2022-11-23T10:31:56;13.00;99.90
11095;DHT22;5601;44.490;11.400;2022-11-23T10:34:28;13.10;99.90
11095;DHT22;5601;44.490;11.400;2022-11-23T10:37:01;13.10;99.90
11095;DHT22;5601;44.490;11.400;2022-11-23T10:39:27;13.20;99.90
11095;DHT22;5601;44.490;11.400;2022-11-23T10:41:56;13.20;99.90
11095;DHT22;5601;44.490;11.400;2022-11-23T10:44:28;13.20;99.90
11095;DHT22;5601;44.490;11.400;2022-11-23T10:46:56;13.30;99.90
11095;DHT22;5601;44.490;11.400;2022-11-23T10:49:23;13.40;99.90
11095;DHT22;5601;44.490;11.400;2022-11-23T10:51:53;13.40;99.90
11095;DHT22;5601;44.490;11.400;2022-11-23T10:54:23;13.40;99.90
11095;DHT22;5601;44.490;11.400;2022-11-23T10:56:51;13.40;99.90
11095;DHT22;5601;44.490;11.400;2022-11-23T10:59:25;13.50;99.90
11095;DHT22;5601;44.490;11.400;2022-11-23T11:01:58;13.60;99.90
11095;DHT22;5601;44.490;11.400;2022-11-23T11:04:25;13.60;99.90
11095;DHT22;5601;44.490;11.400;2022-11-23T11:06:52;13.50;99.90
11095;DHT22;5601;44.490;11.400;2022-11-23T11:09:36;13.30;99.90
11095;DHT22;5601;44.490;11.400;2022-11-23T11:12:08;13.30;99.90
11095;DHT22;5601;44.490;11.400;2022-11-23T11:14:46;13.20;99.90
11095;DHT22;5601;44.490;11.400;2022-11-23T11:17:24;13.20;99.90
11095;DHT22;5601;44.490;11.400;2022-11-23T11:19:51;13.20;99.90
11095;DHT22;5601;44.490;11.400;2022-11-23T11:22:26;13.20;99.90
11095;DHT22;5601;44.490;11.400;2022-11-23T11:24:55;13.20;99.90
11095;DHT22;5601;44.490;11.400;2022-11-23T11:27:22;13.30;99.90
11095;DHT22;5601;44.490;11.400;2022-11-23T11:29:50;13.40;99.90
11095;DHT22;5601;44.490;11.400;2022-11-23T11:32:20;13.50;99.90
11095;DHT22;5601;44.490;11.400;2022-11-23T11:34:50;13.50;99.90
11095;DHT22;5601;44.490;11.400;2022-11-23T11:37:22;13.50;99.90
11095;DHT22;5601;44.490;11.400;2022-11-23T11:39:51;13.60;99.90
11095;DHT22;5601;44.490;11.400;2022-11-23T11:42:22;13.60;99.90
11095;DHT22;5601;44.490;11.400;2022-11-23T11:44:52;13.60;99.90
11095;DHT22;5601;44.490;11.400;2022-11-23T11:47:23;13.60;99.90
11095;DHT22;5601;44.490;11.400;2022-11-23T11:49:51;13.70;99.90
11095;DHT22;5601;44.490;11.400;2022-11-23T11:52:21;13.60;99.90
11095;DHT22;5601;44.490;11.400;2022-11-23T11:54:51;13.70;99.90
11095;DHT22;5601;44.490;11.400;2022-11-23T11:57:21;13.60;99.90
11095;DHT22;5601;44.490;11.400;2022-11-23T11:59:50;13.70;99.90
11095;DHT22;5601;44.490;11.400;2022-11-23T12:02:20;13.70;99.90
11095;DHT22;5601;44.490;11.400;2022-11-23T12:04:52;13.70;99.90
11095;DHT22;5601;44.490;11.400;2022-11-23T12:07:21;13.60;99.90
11095;DHT22;5601;44.490;11.400;2022-11-23T12:09:51;13.60;99.90
11095;DHT22;5601;44.490;11.400;2022-11-23T12:12:22;13.70;99.90
11095;DHT22;5601;44.490;11.400;2022-11-23T12:14:49;13.70;99.90
11095;DHT22;5601;44.490;11.400;2022-11-23T12:17:29;13.80;99.90
11095;DHT22;5601;44.490;11.400;2022-11-23T12:20:01;13.80;99.90
11095;DHT22;5601;44.490;11.400;2022-11-23T12:22:35;13.80;99.90
11095;DHT22;5601;44.490;11.400;2022-11-23T12:25:11;13.90;99.90
11095;DHT22;5601;44.490;11.400;2022-11-23T12:27:45;13.80;99.90
11095;DHT22;5601;44.490;11.400;2022-11-23T12:30:19;13.90;99.90
11095;DHT22;5601;44.490;11.400;2022-11-23T12:32:54;13.90;99.90
11095;DHT22;5601;44.490;11.400;2022-11-23T12:38:09;13.80;99.90
11095;DHT22;5601;44.490;11.400;2022-11-23T12:43:48;13.80;99.90
11095;DHT22;5601;44.490;11.400;2022-11-23T12:46:19;13.80;99.90
11095;DHT22;5601;44.490;11.400;2022-11-23T12:48:52;13.80;99.90
11095;DHT22;5601;44.490;11.400;2022-11-23T12:51:22;13.80;99.90
11095;DHT22;5601;44.490;11.400;2022-11-23T12:53:56;13.90;99.90
11095;DHT22;5601;44.490;11.400;2022-11-23T12:56:27;13.90;99.90
11095;DHT22;5601;44.490;11.400;2022-11-23T12:58:58;13.90;99.90
11095;DHT22;5601;44.490;11.400;2022-11-23T13:01:25;14.00;99.90
11095;DHT22;5601;44.490;11.400;2022-11-23T13:06:46;13.90;99.90
11095;DHT22;5601;44.490;11.400;2022-11-23T13:09:28;13.90;99.90
11095;DHT22;5601;44.490;11.400;2022-11-23T13:12:07;14.00;99.90
11095;DHT22;5601;44.490;11.400;2022-11-23T13:14:43;14.00;99.90
11095;DHT22;5601;44.490;11.400;2022-11-23T13:17:20;14.00;99.90
11095;DHT22;5601;44.490;11.400;2022-11-23T13:20:00;13.90;99.90
11095;DHT22;5601;44.490;11.400;2022-11-23T13:22:31;14.00;99.90
11095;DHT22;5601;44.490;11.400;2022-11-23T13:25:13;14.00;99.90
11095;DHT22;5601;44.490;11.400;2022-11-23T13:27:42;14.00;99.90
11095;DHT22;5601;44.490;11.400;2022-11-23T13:30:22;13.90;99.90
11095;DHT22;5601;44.490;11.400;2022-11-23T13:32:56;14.00;99.90
11095;DHT22;5601;44.490;11.400;2022-11-23T13:38:23;13.90;99.90
11095;DHT22;5601;44.490;11.400;2022-11-23T13:40:50;13.90;99.90
11095;DHT22;5601;44.490;11.400;2022-11-23T13:43:18;13.80;99.90
11095;DHT22;5601;44.490;11.400;2022-11-23T13:45:47;13.80;99.90
11095;DHT22;5601;44.490;11.400;2022-11-23T13:48:40;13.70;99.90
11095;DHT22;5601;44.490;11.400;2022-11-23T13:51:07;13.70;99.90
11095;DHT22;5601;44.490;11.400;2022-11-23T13:53:35;13.70;99.90
11095;DHT22;5601;44.490;11.400;2022-11-23T13:56:17;13.70;99.90
11095;DHT22;5601;44.490;11.400;2022-11-23T13:58:50;13.70;99.90
11095;DHT22;5601;44.490;11.400;2022-11-23T14:06:48;13.50;99.90
11095;DHT22;5601;44.490;11.400;2022-11-23T14:09:20;13.50;99.90
11095;DHT22;5601;44.490;11.400;2022-11-23T14:11:53;13.40;99.90
11095;DHT22;5601;44.490;11.400;2022-11-23T14:14:22;13.30;99.90
11095;DHT22;5601;44.490;11.400;2022-11-23T14:16:57;13.30;99.90
11095;DHT22;5601;44.490;11.400;2022-11-23T14:19:27;13.30;99.90
11095;DHT22;5601;44.490;11.400;2022-11-23T14:22:02;13.30;99.90
11095;DHT22;5601;44.490;11.400;2022-11-23T14:24:44;13.20;99.90
11095;DHT22;5601;44.490;11.400;2022-11-23T14:27:20;13.10;99.90
11095;DHT22;5601;44.490;11.400;2022-11-23T14:29:57;13.10;99.90
11095;DHT22;5601;44.490;11.400;2022-11-23T14:32:28;13.00;99.90
11095;DHT22;5601;44.490;11.400;2022-11-23T14:35:05;12.90;99.90
11095;DHT22;5601;44.490;11.400;2022-11-23T14:37:38;12.90;99.90
11095;DHT22;5601;44.490;11.400;2022-11-23T14:40:11;12.90;99.90
11095;DHT22;5601;44.490;11.400;2022-11-23T14:42:41;12.80;99.90
11095;DHT22;5601;44.490;11.400;2022-11-23T14:45:10;12.70;99.90
11095;DHT22;5601;44.490;11.400;2022-11-23T14:47:37;12.70;99.90
11095;DHT22;5601;44.490;11.400;2022-11-23T14:50:05;12.70;99.90
11095;DHT22;5601;44.490;11.400;2022-11-23T14:52:32;12.60;99.90
11095;DHT22;5601;44.490;11.400;2022-11-23T14:55:03;12.60;99.90
11095;DHT22;5601;44.490;11.400;2022-11-23T16:21:20;9.40;99.90
11095;DHT22;5601;44.490;11.400;2022-11-23T16:23:48;9.30;99.90
11095;DHT22;5601;44.490;11.400;2022-11-23T16:26:15;9.30;99.90
11095;DHT22;5601;44.490;11.400;2022-11-23T16:28:47;9.30;99.90
11095;DHT22;5601;44.490;11.400;2022-11-23T16:31:24;9.30;99.90
11095;DHT22;5601;44.490;11.400;2022-11-23T16:33:52;9.30;99.90
11095;DHT22;5601;44.490;11.400;2022-11-23T16:36:20;9.20;99.90
11095;DHT22;5601;44.490;11.400;2022-11-23T16:38:47;9.30;99.90
11095;DHT22;5601;44.490;11.400;2022-11-23T16:41:14;9.30;99.90
11095;DHT22;5601;44.490;11.400;2022-11-23T16:43:41;9.30;99.90
11095;DHT22;5601;44.490;11.400;2022-11-23T16:46:08;9.30;99.90
11095;DHT22;5601;44.490;11.400;2022-11-23T16:48:39;9.30;99.90
11095;DHT22;5601;44.490;11.400;2022-11-23T16:51:07;9.20;99.90
11095;DHT22;5601;44.490;11.400;2022-11-23T16:53:36;9.20;99.90
11095;DHT22;5601;44.490;11.400;2022-11-23T16:56:04;9.20;99.90
11095;DHT22;5601;44.490;11.400;2022-11-23T16:58:32;9.30;99.90
11095;DHT22;5601;44.490;11.400;2022-11-23T17:01:00;9.30;99.90
11095;DHT22;5601;44.490;11.400;2022-11-23T17:03:28;9.30;99.90
11095;DHT22;5601;44.490;11.400;2022-11-23T17:05:58;9.30;99.90
11095;DHT22;5601;44.490;11.400;2022-11-23T17:08:25;9.20;99.90
11095;DHT22;5601;44.490;11.400;2022-11-23T17:10:54;9.20;99.90
11095;DHT22;5601;44.490;11.400;2022-11-23T17:13:23;9.20;99.90
11095;DHT22;5601;44.490;11.400;2022-11-23T17:15:51;9.20;99.90
11095;DHT22;5601;44.490;11.400;2022-11-23T17:18:18;9.20;99.90
11095;DHT22;5601;44.490;11.400;2022-11-23T17:20:46;9.10;99.90
11095;DHT22;5601;44.490;11.400;2022-11-23T17:23:13;9.10;99.90
11095;DHT22;5601;44.490;11.400;2022-11-23T17:25:41;9.00;99.90
11095;DHT22;5601;44.490;11.400;2022-11-23T17:28:12;9.00;99.90
11095;DHT22;5601;44.490;11.400;2022-11-23T17:30:40;9.00;99.90
11095;DHT22;5601;44.490;11.400;2022-11-23T17:33:08;9.00;99.90
11095;DHT22;5601;44.490;11.400;2022-11-23T17:35:36;8.90;99.90
11095;DHT22;5601;44.490;11.400;2022-11-23T17:38:03;8.90;99.90
11095;DHT22;5601;44.490;11.400;2022-11-23T17:40:31;8.80;99.90
11095;DHT22;5601;44.490;11.400;2022-11-23T17:42:58;8.80;99.90
11095;DHT22;5601;44.490;11.400;2022-11-23T17:45:27;8.70;99.90
11095;DHT22;5601;44.490;11.400;2022-11-23T17:47:54;8.80;99.90
11095;DHT22;5601;44.490;11.400;2022-11-23T17:50:22;8.70;99.90
11095;DHT22;5601;44.490;11.400;2022-11-23T17:52:49;8.70;99.90
11095;DHT22;5601;44.490;11.400;2022-11-23T17:55:18;8.60;99.90
11095;DHT22;5601;44.490;11.400;2022-11-23T17:57:46;8.60;99.90
11095;DHT22;5601;44.490;11.400;2022-11-23T18:00:14;8.60;99.90
11095;DHT22;5601;44.490;11.400;2022-11-23T18:02:44;8.60;99.90
11095;DHT22;5601;44.490;11.400;2022-11-23T18:05:13;8.60;99.90
11095;DHT22;5601;44.490;11.400;2022-11-23T18:07:41;8.50;99.90
11095;DHT22;5601;44.490;11.400;2022-11-23T18:10:09;8.50;99.90
11095;DHT22;5601;44.490;11.400;2022-11-23T18:12:38;8.50;99.90
11095;DHT22;5601;44.490;11.400;2022-11-23T18:15:05;8.50;99.90
11095;DHT22;5601;44.490;11.400;2022-11-23T18:17:33;8.40;99.90
11095;DHT22;5601;44.490;11.400;2022-11-23T18:20:03;8.40;99.90
11095;DHT22;5601;44.490;11.400;2022-11-23T18:22:33;8.40;99.90
11095;DHT22;5601;44.490;11.400;2022-11-23T18:25:00;8.40;99.90
11095;DHT22;5601;44.490;11.400;2022-11-23T18:27:27;8.30;99.90
11095;DHT22;5601;44.490;11.400;2022-11-23T18:29:55;8.20;99.90
11095;DHT22;5601;44.490;11.400;2022-11-23T18:32:24;8.20;99.90
11095;DHT22;5601;44.490;11.400;2022-11-23T18:34:51;8.00;99.90
11095;DHT22;5601;44.490;11.400;2022-11-23T18:37:20;7.90;99.90
11095;DHT22;5601;44.490;11.400;2022-11-23T18:39:48;7.80;99.90
11095;DHT22;5601;44.490;11.400;2022-11-23T18:42:15;7.80;99.90
11095;DHT22;5601;44.490;11.400;2022-11-23T18:44:42;7.70;99.90
11095;DHT22;5601;44.490;11.400;2022-11-23T18:47:10;7.70;99.90
11095;DHT22;5601;44.490;11.400;2022-11-23T18:49:37;7.60;99.90
11095;DHT22;5601;44.490;11.400;2022-11-23T18:52:04;7.60;99.90
11095;DHT22;5601;44.490;11.400;2022-11-23T18:54:34;7.60;99.90
11095;DHT22;5601;44.490;11.400;2022-11-23T18:57:01;7.60;99.90
11095;DHT22;5601;44.490;11.400;2022-11-23T18:59:28;7.60;99.90
11095;DHT22;5601;44.490;11.400;2022-11-23T19:01:56;7.60;99.90
11095;DHT22;5601;44.490;11.400;2022-11-23T19:04:23;7.50;99.90
11095;DHT22;5601;44.490;11.400;2022-11-23T19:06:50;7.50;99.90
11095;DHT22;5601;44.490;11.400;2022-11-23T19:09:17;7.50;99.90
11095;DHT22;5601;44.490;11.400;2022-11-23T19:11:46;7.40;99.90
11095;DHT22;5601;44.490;11.400;2022-11-23T19:14:16;7.40;99.90
11095;DHT22;5601;44.490;11.400;2022-11-23T19:16:43;7.40;99.90
11095;DHT22;5601;44.490;11.400;2022-11-23T19:19:10;7.40;99.90
11095;DHT22;5601;44.490;11.400;2022-11-23T19:21:37;7.40;99.90
11095;DHT22;5601;44.490;11.400;2022-11-23T19:24:05;7.40;99.90
11095;DHT22;5601;44.490;11.400;2022-11-23T19:26:32;7.30;99.90
11095;DHT22;5601;44.490;11.400;2022-11-23T19:29:01;7.30;99.90
11095;DHT22;5601;44.490;11.400;2022-11-23T19:31:29;7.30;99.90
11095;DHT22;5601;44.490;11.400;2022-11-23T19:33:57;7.40;99.90
11095;DHT22;5601;44.490;11.400;2022-11-23T19:36:26;7.40;99.90
11095;DHT22;5601;44.490;11.400;2022-11-23T19:38:54;7.40;99.90
11095;DHT22;5601;44.490;11.400;2022-11-23T19:41:21;7.40;99.90
11095;DHT22;5601;44.490;11.400;2022-11-23T19:43:51;7.30;99.90
11095;DHT22;5601;44.490;11.400;2022-11-23T19:46:20;7.30;99.90
11095;DHT22;5601;44.490;11.400;2022-11-23T19:48:48;7.20;99.90
11095;DHT22;5601;44.490;11.400;2022-11-23T19:51:16;7.20;99.90
11095;DHT22;5601;44.490;11.400;2022-11-23T19:53:44;7.10;99.90
11095;DHT22;5601;44.490;11.400;2022-11-23T19:56:14;7.10;99.90
11095;DHT22;5601;44.490;11.400;2022-11-23T19:58:41;7.10;99.90
11095;DHT22;5601;44.490;11.400;2022-11-23T20:01:09;7.00;99.90
11095;DHT22;5601;44.490;11.400;2022-11-23T20:03:39;6.90;99.90
11095;DHT22;5601;44.490;11.400;2022-11-23T20:06:07;6.90;99.90
11095;DHT22;5601;44.490;11.400;2022-11-23T20:08:35;6.80;99.90
11095;DHT22;5601;44.490;11.400;2022-11-23T20:11:04;6.80;99.90
11095;DHT22;5601;44.490;11.400;2022-11-23T20:13:32;6.90;99.90
11095;DHT22;5601;44.490;11.400;2022-11-23T20:16:00;6.90;99.90
11095;DHT22;5601;44.490;11.400;2022-11-23T20:18:28;6.90;99.90
11095;DHT22;5601;44.490;11.400;2022-11-23T20:20:57;6.90;99.90
11095;DHT22;5601;44.490;11.400;2022-11-23T20:23:24;6.90;99.90
11095;DHT22;5601;44.490;11.400;2022-11-23T20:25:54;6.90;99.90
11095;DHT22;5601;44.490;11.400;2022-11-23T20:28:21;6.90;99.90
11095;DHT22;5601;44.490;11.400;2022-11-23T20:30:48;6.80;99.90
11095;DHT22;5601;44.490;11.400;2022-11-23T20:33:16;6.80;99.90